createdAt,value
2022-08-25T00:02:39.042Z,101731.88
2022-08-25T00:05:42.216Z,101740.56
2022-08-25T00:08:47.874Z,101730.00
2022-08-25T00:11:51.368Z,101729.41
2022-08-25T00:14:55.421Z,101720.50
2022-08-25T00:17:58.508Z,101729.19
2022-08-25T00:21:01.328Z,101725.34
2022-08-25T00:24:06.004Z,101729.03
2022-08-25T00:27:09.538Z,101724.28
2022-08-25T00:30:15.931Z,101724.84
2022-08-25T00:33:19.509Z,101721.22
2022-08-25T00:36:22.681Z,101726.53
2022-08-25T00:39:28.016Z,101717.13
2022-08-25T00:42:31.523Z,101722.50
2022-08-25T00:45:35.488Z,101721.97
2022-08-25T00:48:42.308Z,101713.06
2022-08-25T00:51:51.492Z,101713.06
2022-08-25T00:55:04.299Z,101715.84
2022-08-25T00:58:17.166Z,101705.63
2022-08-25T01:01:20.040Z,101703.44
2022-08-25T01:04:23.899Z,101712.09
2022-08-25T01:07:26.719Z,101708.47
2022-08-25T01:10:32.238Z,101707.09
2022-08-25T01:13:38.963Z,101714.63
2022-08-25T01:16:43.927Z,101719.66
2022-08-25T01:19:46.577Z,101716.06
2022-08-25T01:22:54.997Z,101723.38
2022-08-25T01:26:04.975Z,101721.41
2022-08-25T01:29:22.792Z,101724.81
2022-08-25T01:32:26.043Z,101724.28
2022-08-25T01:35:28.878Z,101722.31
2022-08-25T01:38:32.903Z,101721.50
2022-08-25T01:41:47.956Z,101711.19
2022-08-25T01:44:54.524Z,101717.88
2022-08-25T01:47:57.376Z,101708.75
2022-08-25T01:51:00.013Z,101712.97
2022-08-25T01:54:04.233Z,101712.44
2022-08-25T01:57:06.983Z,101713.06
2022-08-25T02:00:13.407Z,101708.06
2022-08-25T02:03:18.768Z,101711.97
2022-08-25T02:06:29.812Z,101708.88
2022-08-25T02:09:34.787Z,101706.41
2022-08-25T02:12:37.626Z,101701.13
2022-08-25T02:15:43.039Z,101697.81
2022-08-25T02:18:46.479Z,101708.22
2022-08-25T02:21:49.125Z,101699.00
2022-08-25T02:24:55.519Z,101698.19
2022-08-25T02:27:58.396Z,101691.25
2022-08-25T02:31:01.885Z,101690.41
2022-08-25T02:34:05.358Z,101685.97
2022-08-25T02:37:09.720Z,101689.41
2022-08-25T02:40:14.412Z,101688.03
2022-08-25T02:43:17.374Z,101693.34
2022-08-25T02:46:21.854Z,101688.06
2022-08-25T02:49:25.340Z,101686.63
2022-08-25T02:52:28.104Z,101686.94
2022-08-25T02:55:33.703Z,101679.19
2022-08-25T02:58:38.567Z,101673.91
2022-08-25T03:01:41.684Z,101675.88
2022-08-25T03:04:45.243Z,101671.22
2022-08-25T03:07:48.110Z,101670.19
2022-08-25T03:10:52.919Z,101669.06
2022-08-25T03:13:56.623Z,101665.47
2022-08-25T03:16:59.419Z,101662.97
2022-08-25T03:20:02.336Z,101660.78
2022-08-25T03:23:06.086Z,101659.13
2022-08-25T03:26:33.803Z,101657.19
2022-08-25T03:29:36.520Z,101667.75
2022-08-25T03:32:40.025Z,101652.72
2022-08-25T03:35:42.971Z,101652.44
2022-08-25T03:38:46.228Z,101648.00
2022-08-25T03:41:51.628Z,101644.94
2022-08-25T03:44:54.805Z,101641.63
2022-08-25T03:47:57.834Z,101641.03
2022-08-25T03:51:00.903Z,101641.91
2022-08-25T03:54:05.261Z,101649.75
2022-08-25T03:57:09.796Z,101647.50
2022-08-25T04:00:13.208Z,101652.19
2022-08-25T04:03:16.568Z,101654.84
2022-08-25T04:06:20.318Z,101660.28
2022-08-25T04:09:23.655Z,101652.44
2022-08-25T04:12:27.670Z,101655.50
2022-08-25T04:15:30.466Z,101657.41
2022-08-25T04:18:34.282Z,101657.72
2022-08-25T04:21:37.853Z,101655.16
2022-08-25T04:24:40.630Z,101661.84
2022-08-25T04:27:44.726Z,101666.59
2022-08-25T04:30:51.838Z,101673.50
2022-08-25T04:33:55.307Z,101674.66
2022-08-25T04:36:58.251Z,101676.22
2022-08-25T04:40:01.085Z,101674.53
2022-08-25T04:43:05.148Z,101674.09
2022-08-25T04:46:11.292Z,101680.53
2022-08-25T04:49:14.059Z,101680.00
2022-08-25T04:52:17.057Z,101676.69
2022-08-25T04:55:20.131Z,101688.91
2022-08-25T04:58:24.258Z,101682.50
2022-08-25T05:01:27.298Z,101672.69
2022-08-25T05:04:31.232Z,101676.34
2022-08-25T05:07:33.952Z,101674.97
2022-08-25T05:10:41.230Z,101665.13
2022-08-25T05:13:51.273Z,101669.22
2022-08-25T05:16:55.142Z,101675.13
2022-08-25T05:19:58.011Z,101672.34
2022-08-25T05:23:00.659Z,101674.31
2022-08-25T05:26:05.987Z,101674.47
2022-08-25T05:29:10.940Z,101674.16
2022-08-25T05:32:13.605Z,101677.69
2022-08-25T05:35:16.589Z,101673.94
2022-08-25T05:38:20.074Z,101684.56
2022-08-25T05:41:28.402Z,101680.03
2022-08-25T05:44:32.395Z,101682.47
2022-08-25T05:47:35.444Z,101683.56
2022-08-25T05:50:38.061Z,101687.97
2022-08-25T05:53:43.013Z,101688.25
2022-08-25T05:56:46.468Z,101678.38
2022-08-25T05:59:50.664Z,101687.50
2022-08-25T06:02:52.370Z,101691.09
2022-08-25T06:05:55.269Z,101697.00
2022-08-25T06:08:58.054Z,101708.38
2022-08-25T06:12:00.687Z,101699.78
2022-08-25T06:15:06.107Z,101698.72
2022-08-25T06:18:08.834Z,101690.16
2022-08-25T06:21:13.719Z,101681.91
2022-08-25T06:24:16.536Z,101686.75
2022-08-25T06:27:19.476Z,101694.97
2022-08-25T06:30:28.559Z,101693.00
2022-08-25T06:33:32.386Z,101690.97
2022-08-25T06:36:35.695Z,101693.63
2022-08-25T06:39:38.431Z,101705.66
2022-08-25T06:42:41.151Z,101710.72
2022-08-25T06:45:45.153Z,101703.75
2022-08-25T06:48:48.414Z,101702.63
2022-08-25T06:51:51.257Z,101702.31
2022-08-25T06:54:54.643Z,101707.47
2022-08-25T06:57:57.297Z,101697.06
2022-08-25T07:01:13.449Z,101716.06
2022-08-25T07:04:18.745Z,101706.75
2022-08-25T07:07:21.407Z,101710.28
2022-08-25T07:10:24.476Z,101709.03
2022-08-25T07:13:27.273Z,101708.69
2022-08-25T07:16:34.273Z,101702.41
2022-08-25T07:19:37.004Z,101691.59
2022-08-25T07:22:40.169Z,101691.38
2022-08-25T07:25:42.879Z,101696.28
2022-08-25T07:28:47.439Z,101683.28
2022-08-25T07:31:51.961Z,101684.94
2022-08-25T07:35:12.531Z,101686.13
2022-08-25T07:38:19.653Z,101692.81
2022-08-25T07:41:23.825Z,101688.69
2022-08-25T07:44:27.999Z,101688.94
2022-08-25T07:47:32.717Z,101677.78
2022-08-25T07:50:36.201Z,101677.38
2022-08-25T07:53:40.169Z,101685.00
2022-08-25T07:56:43.272Z,101679.72
2022-08-25T07:59:46.920Z,101678.56
2022-08-25T08:02:51.140Z,101676.94
2022-08-25T08:05:56.462Z,101680.91
2022-08-25T08:09:00.013Z,101677.78
2022-08-25T08:12:02.724Z,101673.41
2022-08-25T08:15:10.382Z,101674.44
2022-08-25T08:18:15.987Z,101673.34
2022-08-25T08:21:21.741Z,101671.19
2022-08-25T08:24:40.627Z,101671.13
2022-08-25T08:27:47.173Z,101675.50
2022-08-25T08:30:53.713Z,101677.16
2022-08-25T08:33:58.986Z,101671.97
2022-08-25T08:37:02.035Z,101653.69
2022-08-25T08:40:07.207Z,101655.97
2022-08-25T08:43:18.953Z,101643.34
2022-08-25T08:46:25.944Z,101639.47
2022-08-25T08:49:38.844Z,101637.75
2022-08-25T08:52:46.163Z,101644.44
2022-08-25T08:55:56.767Z,101642.72
2022-08-25T08:59:06.310Z,101650.81
2022-08-25T09:02:22.100Z,101647.72
2022-08-25T09:05:48.340Z,101649.91
2022-08-25T09:08:51.361Z,101645.09
2022-08-25T09:12:09.706Z,101641.78
2022-08-25T09:15:20.381Z,101643.38
2022-08-25T09:18:30.097Z,101633.13
2022-08-25T09:21:41.459Z,101634.97
2022-08-25T09:24:58.133Z,101637.28
2022-08-25T09:28:08.460Z,101637.09
2022-08-25T09:31:18.832Z,101636.63
2022-08-25T09:34:25.643Z,101632.69
2022-08-25T09:37:29.866Z,101630.81
2022-08-25T09:40:35.322Z,101621.88
2022-08-25T09:43:42.611Z,101627.13
2022-08-25T09:46:57.124Z,101628.75
2022-08-25T09:50:05.320Z,101624.72
2022-08-25T09:53:17.619Z,101620.78
2022-08-25T09:56:24.367Z,101618.63
2022-08-25T09:59:35.196Z,101616.31
2022-08-25T10:02:38.621Z,101614.28
2022-08-25T10:06:02.714Z,101603.16
2022-08-25T10:09:09.751Z,101598.84
2022-08-25T10:12:18.794Z,101593.03
2022-08-25T10:15:30.327Z,101583.66
2022-08-25T10:18:33.468Z,101592.13
2022-08-25T10:21:38.333Z,101593.78
2022-08-25T10:24:44.150Z,101589.31
2022-08-25T10:27:54.975Z,101587.69
2022-08-25T10:31:09.706Z,101584.41
2022-08-25T10:34:26.419Z,101583.59
2022-08-25T10:37:38.313Z,101585.00
2022-08-25T10:40:49.847Z,101570.25
2022-08-25T10:44:03.965Z,101569.47
2022-08-25T10:47:34.540Z,101567.34
2022-08-25T10:50:45.464Z,101558.31
2022-08-25T10:53:58.053Z,101558.78
2022-08-25T10:57:13.053Z,101557.97
2022-08-25T11:00:19.601Z,101548.88
2022-08-25T11:03:38.920Z,101543.94
2022-08-25T11:06:52.708Z,101555.38
2022-08-25T11:10:04.087Z,101553.78
2022-08-25T11:13:15.734Z,101544.44
2022-08-25T11:16:23.237Z,101545.94
2022-08-25T11:19:32.782Z,101540.59
2022-08-25T11:22:43.642Z,101530.59
2022-08-25T11:25:50.525Z,101533.78
2022-08-25T11:29:02.543Z,101523.78
2022-08-25T11:32:06.293Z,101524.75
2022-08-25T11:35:13.076Z,101521.44
2022-08-25T11:38:29.964Z,101524.78
2022-08-25T11:41:41.699Z,101520.22
2022-08-25T11:44:56.079Z,101520.06
2022-08-25T11:48:11.645Z,101518.69
2022-08-25T11:51:33.802Z,101513.72
2022-08-25T11:54:44.379Z,101505.41
2022-08-25T11:57:53.587Z,101496.22
2022-08-25T12:01:00.140Z,101497.34
2022-08-25T12:04:14.850Z,101487.91
2022-08-25T12:07:25.035Z,101485.25
2022-08-25T12:10:55.945Z,101481.34
2022-08-25T12:14:16.194Z,101478.97
2022-08-25T12:17:39.621Z,101481.91
2022-08-25T12:21:30.744Z,101467.25
2022-08-25T12:24:51.618Z,101475.81
2022-08-25T12:28:04.896Z,101477.81
2022-08-25T12:31:23.142Z,101462.09
2022-08-25T12:34:51.411Z,101453.44
2022-08-25T12:37:56.973Z,101451.47
2022-08-25T12:41:04.686Z,101442.38
2022-08-25T12:44:21.022Z,101442.19
2022-08-25T12:47:32.430Z,101449.84
2022-08-25T12:50:43.250Z,101442.91
2022-08-25T12:53:49.450Z,101442.84
2022-08-25T12:56:56.184Z,101438.25
2022-08-25T13:00:05.664Z,101441.09
2022-08-25T13:07:03.028Z,101421.31
2022-08-25T13:10:21.472Z,101420.56
2022-08-25T13:13:40.671Z,101419.09
2022-08-25T13:16:54.442Z,101413.19
2022-08-25T13:20:18.153Z,101406.28
2022-08-25T13:23:29.207Z,101405.75
2022-08-25T13:26:34.871Z,101412.84
2022-08-25T13:29:51.562Z,101400.09
2022-08-25T13:32:55.768Z,101390.34
2022-08-25T13:36:17.574Z,101394.97
2022-08-25T13:39:45.526Z,101379.97
2022-08-25T13:42:55.583Z,101381.16
2022-08-25T13:45:58.879Z,101376.16
2022-08-25T13:49:08.765Z,101373.19
2022-08-25T13:52:19.239Z,101367.72
2022-08-25T13:55:51.507Z,101376.13
2022-08-25T13:58:56.426Z,101366.78
2022-08-25T14:02:00.173Z,101370.34
2022-08-25T14:05:03.578Z,101366.78
2022-08-25T14:08:31.767Z,101375.13
2022-08-25T14:11:44.900Z,101369.75
2022-08-25T14:14:59.656Z,101372.41
2022-08-25T14:18:07.275Z,101367.75
2022-08-25T14:21:12.019Z,101362.13
2022-08-25T14:24:18.030Z,101349.09
2022-08-25T14:27:26.596Z,101356.38
2022-08-25T14:30:29.695Z,101351.56
2022-08-25T14:33:38.533Z,101348.09
2022-08-25T14:36:41.384Z,101345.19
2022-08-25T14:39:48.093Z,101336.69
2022-08-25T14:42:52.154Z,101337.66
2022-08-25T14:45:54.833Z,101330.94
2022-08-25T14:49:00.478Z,101331.69
2022-08-25T14:52:09.813Z,101331.16
2022-08-25T14:55:13.852Z,101321.31
2022-08-25T14:58:34.995Z,101311.94
2022-08-25T15:01:51.626Z,101314.00
2022-08-25T15:04:57.634Z,101310.19
2022-08-25T15:08:18.418Z,101304.78
2022-08-25T15:11:21.542Z,101307.53
2022-08-25T15:14:29.088Z,101305.78
2022-08-25T15:17:36.115Z,101307.03
2022-08-25T15:20:39.905Z,101300.00
2022-08-25T15:23:44.576Z,101291.75
2022-08-25T15:30:00.852Z,101287.41
2022-08-25T15:33:03.847Z,101290.00
2022-08-25T15:36:11.208Z,101285.53
2022-08-25T15:39:19.103Z,101286.63
2022-08-25T15:42:22.676Z,101283.81
2022-08-25T15:45:29.055Z,101283.69
2022-08-25T15:48:33.789Z,101280.63
2022-08-25T15:51:37.223Z,101277.25
2022-08-25T15:54:40.705Z,101261.97
2022-08-25T15:57:44.674Z,101265.88
2022-08-25T16:00:56.267Z,101256.69
2022-08-25T16:04:00.006Z,101262.69
2022-08-25T16:07:02.604Z,101254.34
2022-08-25T16:10:07.424Z,101255.34
2022-08-25T16:13:11.377Z,101255.78
2022-08-25T16:16:16.228Z,101254.84
2022-08-25T16:19:18.959Z,101251.25
2022-08-25T16:22:21.750Z,101241.06
2022-08-25T16:25:25.472Z,101235.13
2022-08-25T16:28:28.487Z,101245.41
2022-08-25T16:31:32.687Z,101245.88
2022-08-25T16:34:35.946Z,101239.88
2022-08-25T16:37:38.649Z,101233.50
2022-08-25T16:40:43.812Z,101234.13
2022-08-25T16:43:47.818Z,101235.78
2022-08-25T16:46:54.309Z,101235.47
2022-08-25T16:49:57.349Z,101227.25
2022-08-25T16:53:29.899Z,101228.84
2022-08-25T16:56:35.279Z,101221.44
2022-08-25T16:59:39.777Z,101220.16
2022-08-25T17:02:44.483Z,101221.84
2022-08-25T17:05:48.708Z,101231.94
2022-08-25T17:08:52.896Z,101225.34
2022-08-25T17:11:57.128Z,101219.50
2022-08-25T17:14:59.981Z,101228.81
2022-08-25T17:18:04.029Z,101231.53
2022-08-25T17:21:09.815Z,101222.25
2022-08-25T17:24:15.218Z,101227.44
2022-08-25T17:27:18.659Z,101228.28
2022-08-25T17:30:21.622Z,101228.47
2022-08-25T17:33:25.772Z,101229.69
2022-08-25T17:36:31.328Z,101228.41
2022-08-25T17:39:34.767Z,101228.06
2022-08-25T17:42:37.508Z,101235.66
2022-08-25T17:45:40.821Z,101237.44
2022-08-25T17:48:45.569Z,101238.47
2022-08-25T17:51:48.375Z,101231.09
2022-08-25T17:54:52.593Z,101236.16
2022-08-25T17:57:55.927Z,101234.38
2022-08-25T18:00:59.510Z,101228.97
2022-08-25T18:04:06.382Z,101231.44
2022-08-25T18:07:19.795Z,101224.72
2022-08-25T18:10:22.826Z,101235.34
2022-08-25T18:13:26.693Z,101243.88
2022-08-25T18:16:31.296Z,101245.16
2022-08-25T18:19:35.339Z,101244.06
2022-08-25T18:22:41.659Z,101250.03
2022-08-25T18:25:48.811Z,101248.00
2022-08-25T18:28:51.628Z,101247.75
2022-08-25T18:31:59.680Z,101248.63
2022-08-25T18:35:06.266Z,101249.09
2022-08-25T18:38:27.322Z,101256.91
2022-08-25T18:41:36.975Z,101254.16
2022-08-25T18:44:43.768Z,101254.69
2022-08-25T18:47:53.178Z,101259.91
2022-08-25T18:50:58.072Z,101260.44
2022-08-25T18:54:02.353Z,101265.91
2022-08-25T18:57:08.337Z,101259.34
2022-08-25T19:00:15.814Z,101263.50
2022-08-25T19:03:21.834Z,101265.97
2022-08-25T19:06:25.858Z,101262.22
2022-08-25T19:09:28.800Z,101265.88
2022-08-25T19:12:33.864Z,101263.41
2022-08-25T19:15:42.348Z,101261.97
2022-08-25T19:18:46.166Z,101267.72
2022-08-25T19:21:50.857Z,101268.28
2022-08-25T19:24:53.893Z,101273.06
2022-08-25T19:27:58.459Z,101273.59
2022-08-25T19:31:04.305Z,101273.44
2022-08-25T19:34:08.530Z,101273.31
2022-08-25T19:37:14.196Z,101271.16
2022-08-25T19:40:19.579Z,101268.88
2022-08-25T19:43:22.943Z,101278.97
2022-08-25T19:46:33.019Z,101273.75
2022-08-25T19:49:38.423Z,101271.59
2022-08-25T19:52:45.105Z,101272.94
2022-08-25T19:55:48.619Z,101277.41
2022-08-25T19:58:51.743Z,101280.53
2022-08-25T20:01:54.603Z,101274.09
2022-08-25T20:04:59.958Z,101271.28
2022-08-25T20:08:05.631Z,101272.78
2022-08-25T20:11:08.404Z,101276.44
2022-08-25T20:14:12.176Z,101281.38
2022-08-25T20:17:24.190Z,101280.75
2022-08-25T20:20:32.373Z,101283.53
2022-08-25T20:23:55.922Z,101276.28
2022-08-25T20:26:59.126Z,101274.50
2022-08-25T20:30:03.258Z,101267.59
2022-08-25T20:33:08.149Z,101277.13
2022-08-25T20:36:15.050Z,101274.66
2022-08-25T20:39:20.332Z,101270.03
2022-08-25T20:42:22.991Z,101272.19
2022-08-25T20:45:26.036Z,101272.31
2022-08-25T20:48:29.256Z,101269.00
2022-08-25T20:51:32.200Z,101271.66
2022-08-25T20:54:36.977Z,101266.22
2022-08-25T20:57:39.789Z,101262.75
2022-08-25T21:00:42.919Z,101267.69
2022-08-25T21:03:45.602Z,101258.78
2022-08-25T21:06:51.414Z,101252.53
2022-08-25T21:09:55.632Z,101265.19
2022-08-25T21:12:58.597Z,101265.50
2022-08-25T21:16:03.665Z,101264.53
2022-08-25T21:19:11.068Z,101264.50
2022-08-25T21:22:13.832Z,101257.09
2022-08-25T21:25:18.925Z,101253.44
2022-08-25T21:28:21.719Z,101253.06
2022-08-25T21:31:24.637Z,101249.09
2022-08-25T21:34:28.883Z,101250.56
2022-08-25T21:37:32.071Z,101251.00
2022-08-25T21:40:37.424Z,101244.09
2022-08-25T21:43:40.226Z,101252.38
2022-08-25T21:46:53.816Z,101255.97
2022-08-25T21:49:57.742Z,101260.75
2022-08-25T21:53:00.444Z,101248.22
2022-08-25T21:56:06.194Z,101252.50
2022-08-25T21:59:10.829Z,101244.75
2022-08-25T22:02:19.172Z,101249.03
2022-08-25T22:05:24.506Z,101246.03
2022-08-25T22:08:30.610Z,101244.72
2022-08-25T22:11:36.097Z,101239.44
2022-08-25T22:14:39.520Z,101254.56
2022-08-25T22:17:42.734Z,101244.53
2022-08-25T22:20:45.570Z,101237.63
2022-08-25T22:23:48.373Z,101237.56
2022-08-25T22:26:52.418Z,101236.09
2022-08-25T22:29:57.088Z,101233.97
2022-08-25T22:33:00.015Z,101225.25
2022-08-25T22:36:03.129Z,101235.25
2022-08-25T22:39:07.785Z,101226.69
2022-08-25T22:42:12.194Z,101228.16
2022-08-25T22:45:14.834Z,101214.34
2022-08-25T22:48:20.819Z,101223.53
2022-08-25T22:51:25.588Z,101219.91
2022-08-25T22:54:28.767Z,101219.28
2022-08-25T22:57:35.366Z,101210.91
2022-08-25T23:00:40.088Z,101217.63
2022-08-25T23:03:44.422Z,101210.72
2022-08-25T23:06:47.455Z,101210.72
2022-08-25T23:09:50.120Z,101209.91
2022-08-25T23:12:54.313Z,101203.81
2022-08-25T23:15:57.005Z,101205.78
2022-08-25T23:19:00.388Z,101191.28
2022-08-25T23:22:12.644Z,101194.91
2022-08-25T23:25:17.038Z,101191.28
2022-08-25T23:28:22.599Z,101188.81
2022-08-25T23:31:25.283Z,101193.91
2022-08-25T23:34:28.760Z,101195.38
2022-08-25T23:37:31.418Z,101189.59
2022-08-25T23:40:35.087Z,101191.03
2022-08-25T23:43:40.428Z,101189.72
2022-08-25T23:46:44.564Z,101182.31
2022-08-25T23:49:48.088Z,101180.47
2022-08-25T23:52:51.204Z,101182.75
2022-08-25T23:55:54.635Z,101178.13
2022-08-25T23:58:59.709Z,101175.66
